^^
Station Historical Data
Daily Summary for September 3, 2017 Units:  Both    English   Metric
« Previous Day
Next Day »
Daily Weekly Monthly Yearly Custom
  High: Low: Average:
Temperature: TemperatureF °F /  -17.8 °C 61.3 °F /  16.3 °C 71.5 °F /  21.9 °C
Dew Point: DewpointF °F /  -17.8 °C 7.0 °F /  -13.9 °C 25.7 °F /  -3.5 °C
Humidity: Humidity% 10% 18%
Wind Speed: WindSpeedMPHmph /  0km/h - 3mph /  4.8km/h
Wind Gust: WindSpeedGustMPHmph /  0km/h - -
Wind- - East
Pressure: PressureIn in /  0 hPa 29.92 in /  1013.1 hPa -
Precipitation: 0.00 in /  0 mm    
Historical Graphs
 
 
Tabular Data for September 3, 2017
Time Temperature Dew Point Pressure Wind Wind Speed Wind Gust Humidity Rainfall Rate (Hourly) solar Conditions
TemperatureF °F /  -17.8 °C DewpointF °F /  -17.8 °C PressureInin /  0hPa Calm     Humidity% HourlyPrecipInin /  0mm SolarRadiationWatts/m^2 W/m2 Conditions
00:05 66.0 °F /  18.9 °C 25.0 °F /  -3.9 °C 30.23in /  1023.6hPa NNE 2.9mph /  4.7km/h 9.0mph /  14.5km/h 21% 0.00in /  0mm 0.0 W/m2
00:11 66.4 °F /  19.1 °C 24.1 °F /  -4.4 °C 30.22in /  1023.2hPa East 2.9mph /  4.7km/h 10.0mph /  16.1km/h 20% 0.00in /  0mm 0.0 W/m2
00:17 66.6 °F /  19.2 °C 23.0 °F /  -5 °C 30.22in /  1023.2hPa ESE 0.9mph /  1.4km/h 13.0mph /  20.9km/h 19% 0.00in /  0mm 0.0 W/m2
00:23 66.6 °F /  19.2 °C 21.7 °F /  -5.7 °C 30.22in /  1023.2hPa ESE 2.0mph /  3.2km/h 9.0mph /  14.5km/h 18% 0.00in /  0mm 0.0 W/m2
00:29 66.6 °F /  19.2 °C 21.7 °F /  -5.7 °C 30.22in /  1023.2hPa SE 2.9mph /  4.7km/h 3.0mph /  4.8km/h 18% 0.00in /  0mm 0.0 W/m2
00:36 66.6 °F /  19.2 °C 20.3 °F /  -6.5 °C 30.21in /  1022.9hPa NE 2.0mph /  3.2km/h 8.0mph /  12.9km/h 17% 0.00in /  0mm 0.0 W/m2
00:42 66.2 °F /  19 °C 18.7 °F /  -7.4 °C 30.21in /  1022.9hPa Calm   11.0mph /  17.7km/h 16% 0.00in /  0mm 0.0 W/m2
00:48 66.0 °F /  18.9 °C 18.5 °F /  -7.5 °C 30.21in /  1022.9hPa ENE 4.0mph /  6.4km/h 13.0mph /  20.9km/h 16% 0.00in /  0mm 0.0 W/m2
00:54 66.4 °F /  19.1 °C 18.9 °F /  -7.3 °C 30.21in /  1022.9hPa SE 4.0mph /  6.4km/h 10.0mph /  16.1km/h 16% 0.00in /  0mm 0.0 W/m2
01:00 66.4 °F /  19.1 °C 18.9 °F /  -7.3 °C 30.21in /  1022.9hPa SE 10.1mph /  16.3km/h 15.0mph /  24.1km/h 16% 0.00in /  0mm 0.0 W/m2
01:06 66.4 °F /  19.1 °C 20.3 °F /  -6.5 °C 30.21in /  1022.9hPa ESE 4.0mph /  6.4km/h 12.0mph /  19.3km/h 17% 0.00in /  0mm 0.0 W/m2
01:12 66.4 °F /  19.1 °C 21.6 °F /  -5.8 °C 30.21in /  1022.9hPa ENE 12.1mph /  19.5km/h 15.0mph /  24.1km/h 18% 0.00in /  0mm 0.0 W/m2
01:18 66.4 °F /  19.1 °C 21.6 °F /  -5.8 °C 30.21in /  1022.9hPa ESE 0.9mph /  1.4km/h 10.0mph /  16.1km/h 18% 0.00in /  0mm 0.0 W/m2
01:25 66.2 °F /  19 °C 22.6 °F /  -5.2 °C 30.21in /  1022.9hPa SE 4.0mph /  6.4km/h 6.0mph /  9.7km/h 19% 0.00in /  0mm 0.0 W/m2
01:31 66.0 °F /  18.9 °C 19.9 °F /  -6.7 °C 30.21in /  1022.9hPa East 2.0mph /  3.2km/h 11.0mph /  17.7km/h 17% 0.00in /  0mm 0.0 W/m2
01:37 65.8 °F /  18.8 °C 19.8 °F /  -6.8 °C 30.21in /  1022.9hPa ESE 6.9mph /  11.1km/h 8.0mph /  12.9km/h 17% 0.00in /  0mm 0.0 W/m2
01:43 65.7 °F /  18.7 °C 18.3 °F /  -7.6 °C 30.21in /  1022.9hPa NNE 6.0mph /  9.7km/h 6.0mph /  9.7km/h 16% 0.00in /  0mm 0.0 W/m2
01:49 65.5 °F /  18.6 °C 15.1 °F /  -9.4 °C 30.21in /  1022.9hPa East 0.9mph /  1.4km/h 4.0mph /  6.4km/h 14% 0.00in /  0mm 0.0 W/m2
01:55 65.3 °F /  18.5 °C 11.3 °F /  -11.5 °C 30.21in /  1022.9hPa NE 4.0mph /  6.4km/h 11.0mph /  17.7km/h 12% 0.00in /  0mm 0.0 W/m2
03:01 65.1 °F /  18.4 °C 7.2 °F /  -13.8 °C 30.21in /  1022.9hPa Calm   8.0mph /  12.9km/h 10% 0.00in /  0mm 0.0 W/m2
03:07 65.1 °F /  18.4 °C 7.2 °F /  -13.8 °C 30.20in /  1022.6hPa SE 0.9mph /  1.4km/h 3.0mph /  4.8km/h 10% 0.00in /  0mm 0.0 W/m2
03:14 65.1 °F /  18.4 °C 9.3 °F /  -12.6 °C 30.20in /  1022.6hPa SE 2.9mph /  4.7km/h 8.0mph /  12.9km/h 11% 0.00in /  0mm 0.0 W/m2
03:20 65.3 °F /  18.5 °C 14.9 °F /  -9.5 °C 30.20in /  1022.6hPa ESE 2.0mph /  3.2km/h 14.0mph /  22.5km/h 14% 0.00in /  0mm 0.0 W/m2
03:26 65.7 °F /  18.7 °C 15.1 °F /  -9.4 °C 30.19in /  1022.2hPa Calm   8.0mph /  12.9km/h 14% 0.00in /  0mm 0.0 W/m2
03:32 65.7 °F /  18.7 °C 16.7 °F /  -8.5 °C 30.19in /  1022.2hPa Calm   7.0mph /  11.3km/h 15% 0.00in /  0mm 0.0 W/m2
03:40 65.8 °F /  18.8 °C 16.9 °F /  -8.4 °C 30.19in /  1022.2hPa NNE 6.0mph /  9.7km/h 9.0mph /  14.5km/h 15% 0.00in /  0mm 0.0 W/m2
03:46 65.8 °F /  18.8 °C 18.3 °F /  -7.6 °C 30.19in /  1022.2hPa NE 6.0mph /  9.7km/h 8.0mph /  12.9km/h 16% 0.00in /  0mm 0.0 W/m2
03:52 65.7 °F /  18.7 °C 18.3 °F /  -7.6 °C 30.20in /  1022.6hPa East 2.9mph /  4.7km/h 8.0mph /  12.9km/h 16% 0.00in /  0mm 0.0 W/m2
03:59 65.5 °F /  18.6 °C 18.1 °F /  -7.7 °C 30.19in /  1022.2hPa East 2.9mph /  4.7km/h 6.0mph /  9.7km/h 16% 0.00in /  0mm 0.0 W/m2
04:05 65.5 °F /  18.6 °C 18.1 °F /  -7.7 °C 30.19in /  1022.2hPa Calm   4.0mph /  6.4km/h 16% 0.00in /  0mm 0.0 W/m2
04:11 65.1 °F /  18.4 °C 19.2 °F /  -7.1 °C 30.19in /  1022.2hPa NNE 6.0mph /  9.7km/h 7.0mph /  11.3km/h 17% 0.00in /  0mm 0.0 W/m2
04:17 64.9 °F /  18.3 °C 19.0 °F /  -7.2 °C 30.19in /  1022.2hPa NE 8.9mph /  14.3km/h 13.0mph /  20.9km/h 17% 0.00in /  0mm 0.0 W/m2
04:23 65.1 °F /  18.4 °C 19.2 °F /  -7.1 °C 30.19in /  1022.2hPa ENE 2.0mph /  3.2km/h 8.0mph /  12.9km/h 17% 0.00in /  0mm 0.0 W/m2
04:29 64.9 °F /  18.3 °C 19.0 °F /  -7.2 °C 30.19in /  1022.2hPa East 6.0mph /  9.7km/h 6.0mph /  9.7km/h 17% 0.00in /  0mm 0.0 W/m2
04:35 64.9 °F /  18.3 °C 20.5 °F /  -6.4 °C 30.19in /  1022.2hPa ENE 2.9mph /  4.7km/h 9.0mph /  14.5km/h 18% 0.00in /  0mm 0.0 W/m2
04:41 64.9 °F /  18.3 °C 20.5 °F /  -6.4 °C 30.19in /  1022.2hPa North 4.9mph /  7.9km/h 11.0mph /  17.7km/h 18% 0.00in /  0mm 0.0 W/m2
04:48 64.9 °F /  18.3 °C 17.6 °F /  -8 °C 30.19in /  1022.2hPa East 6.9mph /  11.1km/h 8.0mph /  12.9km/h 16% 0.00in /  0mm 0.0 W/m2
04:54 64.8 °F /  18.2 °C 17.4 °F /  -8.1 °C 30.19in /  1022.2hPa ENE 4.0mph /  6.4km/h 8.0mph /  12.9km/h 16% 0.00in /  0mm 0.0 W/m2
05:00 64.6 °F /  18.1 °C 18.9 °F /  -7.3 °C 30.20in /  1022.6hPa ENE 4.9mph /  7.9km/h 11.0mph /  17.7km/h 17% 0.00in /  0mm 0.0 W/m2
05:06 64.6 °F /  18.1 °C 18.9 °F /  -7.3 °C 30.20in /  1022.6hPa East 4.0mph /  6.4km/h 13.0mph /  20.9km/h 17% 0.00in /  0mm 0.0 W/m2
05:18 64.6 °F /  18.1 °C 14.4 °F /  -9.8 °C 30.20in /  1022.6hPa East 4.9mph /  7.9km/h 18.0mph /  29km/h 14% 0.00in /  0mm 0.0 W/m2
05:22 64.8 °F /  18.2 °C 12.7 °F /  -10.7 °C 29.92in /  1013.1hPa SE 4.0mph /  6.4km/h 12.0mph /  19.3km/h 13% 0.00in /  0mm 0.0 W/m2
05:24 64.8 °F /  18.2 °C 10.9 °F /  -11.7 °C 30.20in /  1022.6hPa SE 4.9mph /  7.9km/h 11.0mph /  17.7km/h 12% 0.00in /  0mm 0.0 W/m2
05:30 64.9 °F /  18.3 °C 11.1 °F /  -11.6 °C 30.20in /  1022.6hPa ESE 6.0mph /  9.7km/h 15.0mph /  24.1km/h 12% 0.00in /  0mm 0.0 W/m2
05:32 64.8 °F /  18.2 °C 10.9 °F /  -11.7 °C 30.20in /  1022.6hPa East 2.0mph /  3.2km/h 14.0mph /  22.5km/h 12% 0.00in /  0mm 0.0 W/m2
05:39 64.8 °F /  18.2 °C 9.0 °F /  -12.8 °C 30.21in /  1022.9hPa ENE 2.0mph /  3.2km/h 10.0mph /  16.1km/h 11% 0.00in /  0mm 0.0 W/m2
05:45 64.6 °F /  18.1 °C 8.8 °F /  -12.9 °C 30.21in /  1022.9hPa NNE 4.9mph /  7.9km/h 10.0mph /  16.1km/h 11% 0.00in /  0mm 0.0 W/m2
05:51 64.4 °F /  18 °C 8.8 °F /  -12.9 °C 30.21in /  1022.9hPa NNE 2.9mph /  4.7km/h 12.0mph /  19.3km/h 11% 0.00in /  0mm 0.0 W/m2
05:57 64.0 °F /  17.8 °C 8.4 °F /  -13.1 °C 30.21in /  1022.9hPa ENE 8.9mph /  14.3km/h 12.0mph /  19.3km/h 11% 0.00in /  0mm 0.0 W/m2
06:03 64.0 °F /  17.8 °C 8.4 °F /  -13.1 °C 30.21in /  1022.9hPa ESE 0.9mph /  1.4km/h 5.0mph /  8km/h 11% 0.00in /  0mm 0.0 W/m2
06:09 63.9 °F /  17.7 °C 8.2 °F /  -13.2 °C 30.22in /  1023.2hPa NNE 2.9mph /  4.7km/h 9.0mph /  14.5km/h 11% 0.00in /  0mm 0.0 W/m2
06:11 63.9 °F /  17.7 °C 8.2 °F /  -13.2 °C 30.22in /  1023.2hPa ENE 2.9mph /  4.7km/h 10.0mph /  16.1km/h 11% 0.00in /  0mm 0.0 W/m2
06:17 63.7 °F /  17.6 °C 8.2 °F /  -13.2 °C 30.23in /  1023.6hPa East 2.0mph /  3.2km/h 11.0mph /  17.7km/h 11% 0.00in /  0mm 0.0 W/m2
06:23 63.3 °F /  17.4 °C 7.9 °F /  -13.4 °C 30.23in /  1023.6hPa ENE 4.9mph /  7.9km/h 7.0mph /  11.3km/h 11% 0.00in /  0mm 0.0 W/m2
06:30 63.0 °F /  17.2 °C 9.5 °F /  -12.5 °C 30.22in /  1023.2hPa Calm   6.0mph /  9.7km/h 12% 0.00in /  0mm 0.0 W/m2
06:36 62.6 °F /  17 °C 7.3 °F /  -13.7 °C 30.22in /  1023.2hPa East 2.0mph /  3.2km/h 8.0mph /  12.9km/h 11% 0.00in /  0mm 0.0 W/m2
06:40 62.4 °F /  16.9 °C 7.2 °F /  -13.8 °C 30.22in /  1023.2hPa East 0.9mph /  1.4km/h 6.0mph /  9.7km/h 11% 0.00in /  0mm 0.0 W/m2
06:46 62.2 °F /  16.8 °C 7.0 °F /  -13.9 °C 30.23in /  1023.6hPa NE 6.0mph /  9.7km/h 8.0mph /  12.9km/h 11% 0.00in /  0mm 0.0 W/m2
06:52 62.1 °F /  16.7 °C 8.8 °F /  -12.9 °C 30.23in /  1023.6hPa NE 2.0mph /  3.2km/h 4.0mph /  6.4km/h 12% 0.00in /  0mm 0.0 W/m2
06:58 61.9 °F /  16.6 °C 8.6 °F /  -13 °C 30.23in /  1023.6hPa ENE 0.9mph /  1.4km/h 5.0mph /  8km/h 12% 0.00in /  0mm 0.0 W/m2
07:04 61.7 °F /  16.5 °C 8.6 °F /  -13 °C 30.23in /  1023.6hPa NE 2.0mph /  3.2km/h 4.0mph /  6.4km/h 12% 0.00in /  0mm 5.0 W/m2
07:11 61.5 °F /  16.4 °C 8.4 °F /  -13.1 °C 30.23in /  1023.6hPa Calm   2.0mph /  3.2km/h 12% 0.00in /  0mm 14.0 W/m2
07:17 61.3 °F /  16.3 °C 10.0 °F /  -12.2 °C 30.23in /  1023.6hPa East 0.9mph /  1.4km/h 4.0mph /  6.4km/h 13% 0.00in /  0mm 21.0 W/m2
07:23 61.5 °F /  16.4 °C 10.2 °F /  -12.1 °C 30.23in /  1023.6hPa ESE 2.9mph /  4.7km/h 7.0mph /  11.3km/h 13% 0.00in /  0mm 28.0 W/m2
07:29 61.9 °F /  16.6 °C 12.2 °F /  -11 °C 30.23in /  1023.6hPa NNW 0.9mph /  1.4km/h 6.0mph /  9.7km/h 14% 0.00in /  0mm 32.0 W/m2
07:35 62.2 °F /  16.8 °C 15.4 °F /  -9.2 °C 30.23in /  1023.6hPa ENE 6.0mph /  9.7km/h 6.0mph /  9.7km/h 16% 0.00in /  0mm 35.0 W/m2
07:41 62.8 °F /  17.1 °C 16.0 °F /  -8.9 °C 30.23in /  1023.6hPa East 2.9mph /  4.7km/h 8.0mph /  12.9km/h 16% 0.00in /  0mm 40.0 W/m2
07:47 63.1 °F /  17.3 °C 16.2 °F /  -8.8 °C 30.24in /  1023.9hPa North 6.0mph /  9.7km/h 14.0mph /  22.5km/h 16% 0.00in /  0mm 47.0 W/m2
07:53 63.3 °F /  17.4 °C 16.3 °F /  -8.7 °C 30.24in /  1023.9hPa East 4.9mph /  7.9km/h 8.0mph /  12.9km/h 16% 0.00in /  0mm 58.0 W/m2
08:00 63.9 °F /  17.7 °C 16.7 °F /  -8.5 °C 30.24in /  1023.9hPa NE 2.9mph /  4.7km/h 11.0mph /  17.7km/h 16% 0.00in /  0mm 67.0 W/m2
08:06 64.0 °F /  17.8 °C 15.4 °F /  -9.2 °C 30.24in /  1023.9hPa NNE 2.9mph /  4.7km/h 7.0mph /  11.3km/h 15% 0.00in /  0mm 74.0 W/m2
08:12 64.0 °F /  17.8 °C 15.4 °F /  -9.2 °C 30.24in /  1023.9hPa NE 2.0mph /  3.2km/h 10.0mph /  16.1km/h 15% 0.00in /  0mm 83.0 W/m2
08:18 64.2 °F /  17.9 °C 15.6 °F /  -9.1 °C 30.24in /  1023.9hPa NE 4.0mph /  6.4km/h 8.0mph /  12.9km/h 15% 0.00in /  0mm 90.0 W/m2
08:24 64.4 °F /  18 °C 15.8 °F /  -9 °C 30.24in /  1023.9hPa NE 6.0mph /  9.7km/h 7.0mph /  11.3km/h 15% 0.00in /  0mm 88.0 W/m2
08:30 64.8 °F /  18.2 °C 16.0 °F /  -8.9 °C 30.24in /  1023.9hPa NE 4.9mph /  7.9km/h 8.0mph /  12.9km/h 15% 0.00in /  0mm 86.0 W/m2
08:37 64.9 °F /  18.3 °C 17.6 °F /  -8 °C 30.24in /  1023.9hPa ESE 2.0mph /  3.2km/h 7.0mph /  11.3km/h 16% 0.00in /  0mm 86.0 W/m2
08:43 65.1 °F /  18.4 °C 17.8 °F /  -7.9 °C 30.24in /  1023.9hPa ENE 4.0mph /  6.4km/h 9.0mph /  14.5km/h 16% 0.00in /  0mm 86.0 W/m2
08:49 65.7 °F /  18.7 °C 18.3 °F /  -7.6 °C 30.24in /  1023.9hPa ENE 4.0mph /  6.4km/h 8.0mph /  12.9km/h 16% 0.00in /  0mm 86.0 W/m2
08:55 66.0 °F /  18.9 °C 19.9 °F /  -6.7 °C 30.24in /  1023.9hPa East 2.0mph /  3.2km/h 10.0mph /  16.1km/h 17% 0.00in /  0mm 88.0 W/m2
09:01 66.6 °F /  19.2 °C 20.3 °F /  -6.5 °C 30.24in /  1023.9hPa ENE 2.0mph /  3.2km/h 6.0mph /  9.7km/h 17% 0.00in /  0mm 91.0 W/m2
09:07 67.1 °F /  19.5 °C 20.8 °F /  -6.2 °C 30.25in /  1024.3hPa ENE 2.0mph /  3.2km/h 6.0mph /  9.7km/h 17% 0.00in /  0mm 95.0 W/m2
09:13 67.5 °F /  19.7 °C 19.8 °F /  -6.8 °C 30.25in /  1024.3hPa Calm   4.0mph /  6.4km/h 16% 0.00in /  0mm 98.0 W/m2
09:19 68.0 °F /  20 °C 21.6 °F /  -5.8 °C 30.25in /  1024.3hPa NE 2.0mph /  3.2km/h 5.0mph /  8km/h 17% 0.00in /  0mm 102.0 W/m2
09:26 68.5 °F /  20.3 °C 21.9 °F /  -5.6 °C 30.25in /  1024.3hPa East 4.9mph /  7.9km/h 6.0mph /  9.7km/h 17% 0.00in /  0mm 104.0 W/m2
09:32 69.3 °F /  20.7 °C 22.6 °F /  -5.2 °C 30.24in /  1023.9hPa ESE 2.9mph /  4.7km/h 6.0mph /  9.7km/h 17% 0.00in /  0mm 109.0 W/m2
09:38 69.8 °F /  21 °C 24.4 °F /  -4.2 °C 30.24in /  1023.9hPa NE 2.0mph /  3.2km/h 3.0mph /  4.8km/h 18% 0.00in /  0mm 178.0 W/m2
09:44 70.7 °F /  21.5 °C 25.2 °F /  -3.8 °C 30.24in /  1023.9hPa East 4.9mph /  7.9km/h 7.0mph /  11.3km/h 18% 0.00in /  0mm 448.0 W/m2
09:50 71.6 °F /  22 °C 24.4 °F /  -4.2 °C 30.24in /  1023.9hPa SE 2.0mph /  3.2km/h 5.0mph /  8km/h 17% 0.00in /  0mm 468.0 W/m2
09:56 72.5 °F /  22.5 °C 25.2 °F /  -3.8 °C 30.24in /  1023.9hPa ENE 2.0mph /  3.2km/h 6.0mph /  9.7km/h 17% 0.00in /  0mm 487.0 W/m2
10:02 73.6 °F /  23.1 °C 26.1 °F /  -3.3 °C 30.24in /  1023.9hPa Calm   4.0mph /  6.4km/h 17% 0.00in /  0mm 510.0 W/m2
10:09 74.7 °F /  23.7 °C 28.4 °F /  -2 °C 30.24in /  1023.9hPa SE 6.0mph /  9.7km/h 7.0mph /  11.3km/h 18% 0.00in /  0mm 526.0 W/m2
10:15 75.6 °F /  24.2 °C 27.7 °F /  -2.4 °C 30.24in /  1023.9hPa East 2.9mph /  4.7km/h 9.0mph /  14.5km/h 17% 0.00in /  0mm 541.0 W/m2
10:21 76.1 °F /  24.5 °C 26.6 °F /  -3 °C 30.24in /  1023.9hPa East 4.9mph /  7.9km/h 10.0mph /  16.1km/h 16% 0.00in /  0mm 559.0 W/m2
10:27 76.1 °F /  24.5 °C 26.6 °F /  -3 °C 30.24in /  1023.9hPa ENE 2.0mph /  3.2km/h 13.0mph /  20.9km/h 16% 0.00in /  0mm 578.0 W/m2
10:33 76.3 °F /  24.6 °C 26.8 °F /  -2.9 °C 30.24in /  1023.9hPa SE 6.9mph /  11.1km/h 9.0mph /  14.5km/h 16% 0.00in /  0mm 594.0 W/m2
10:39 76.5 °F /  24.7 °C 27.0 °F /  -2.8 °C 30.24in /  1023.9hPa East 6.0mph /  9.7km/h 9.0mph /  14.5km/h 16% 0.00in /  0mm 608.0 W/m2
10:45 76.5 °F /  24.7 °C 25.3 °F /  -3.7 °C 30.24in /  1023.9hPa NE 2.0mph /  3.2km/h 9.0mph /  14.5km/h 15% 0.00in /  0mm 624.0 W/m2
10:51 76.6 °F /  24.8 °C 25.5 °F /  -3.6 °C 30.24in /  1023.9hPa East 6.9mph /  11.1km/h 15.0mph /  24.1km/h 15% 0.00in /  0mm 638.0 W/m2
10:58 76.8 °F /  24.9 °C 25.7 °F /  -3.5 °C 30.24in /  1023.9hPa Calm   10.0mph /  16.1km/h 15% 0.00in /  0mm 652.0 W/m2
11:04 76.8 °F /  24.9 °C 27.1 °F /  -2.7 °C 30.24in /  1023.9hPa SE 0.9mph /  1.4km/h 15.0mph /  24.1km/h 16% 0.00in /  0mm 661.0 W/m2
11:10 76.6 °F /  24.8 °C 27.1 °F /  -2.7 °C 30.24in /  1023.9hPa East 12.1mph /  19.5km/h 12.1mph /  19.5km/h 16% 0.00in /  0mm 679.0 W/m2
11:16 76.5 °F /  24.7 °C 28.4 °F /  -2 °C 30.24in /  1023.9hPa East 12.1mph /  19.5km/h 14.0mph /  22.5km/h 17% 0.00in /  0mm 687.0 W/m2
11:22 76.5 °F /  24.7 °C 29.8 °F /  -1.2 °C 30.23in /  1023.6hPa East 6.9mph /  11.1km/h 12.0mph /  19.3km/h 18% 0.00in /  0mm 694.0 W/m2
11:28 76.8 °F /  24.9 °C 28.8 °F /  -1.8 °C 30.23in /  1023.6hPa ENE 4.9mph /  7.9km/h 10.0mph /  16.1km/h 17% 0.00in /  0mm 703.0 W/m2
11:34 77.2 °F /  25.1 °C 28.9 °F /  -1.7 °C 30.23in /  1023.6hPa ENE 4.0mph /  6.4km/h 10.0mph /  16.1km/h 17% 0.00in /  0mm 712.0 W/m2
11:40 77.7 °F /  25.4 °C 29.5 °F /  -1.4 °C 30.22in /  1023.2hPa ENE 0.9mph /  1.4km/h 13.0mph /  20.9km/h 17% 0.00in /  0mm 719.0 W/m2
11:46 78.3 °F /  25.7 °C 31.3 °F /  -0.4 °C 30.22in /  1023.2hPa ENE 2.9mph /  4.7km/h 9.0mph /  14.5km/h 18% 0.00in /  0mm 724.0 W/m2
11:53 79.0 °F /  26.1 °C 30.4 °F /  -0.9 °C 30.22in /  1023.2hPa ENE 6.0mph /  9.7km/h 8.0mph /  12.9km/h 17% 0.00in /  0mm 729.0 W/m2
11:59 79.5 °F /  26.4 °C 30.9 °F /  -0.6 °C 30.21in /  1022.9hPa East 2.0mph /  3.2km/h 10.0mph /  16.1km/h 17% 0.00in /  0mm 737.0 W/m2
12:05 80.1 °F /  26.7 °C 31.3 °F /  -0.4 °C 30.21in /  1022.9hPa North 2.9mph /  4.7km/h 9.0mph /  14.5km/h 17% 0.00in /  0mm 738.0 W/m2
12:11 80.1 °F /  26.7 °C 31.3 °F /  -0.4 °C 30.21in /  1022.9hPa NE 8.1mph /  13km/h 13.0mph /  20.9km/h 17% 0.00in /  0mm 744.0 W/m2
12:17 80.1 °F /  26.7 °C 31.3 °F /  -0.4 °C 30.20in /  1022.6hPa ENE 11.0mph /  17.7km/h 14.0mph /  22.5km/h 17% 0.00in /  0mm 747.0 W/m2
12:23 80.4 °F /  26.9 °C 31.6 °F /  -0.2 °C 30.20in /  1022.6hPa NE 4.0mph /  6.4km/h 9.0mph /  14.5km/h 17% 0.00in /  0mm 749.0 W/m2
12:29 80.8 °F /  27.1 °C 33.3 °F /  0.7 °C 30.20in /  1022.6hPa East 4.9mph /  7.9km/h 11.0mph /  17.7km/h 18% 0.00in /  0mm 754.0 W/m2
12:35 81.1 °F /  27.3 °C 32.2 °F /  0.1 °C 30.19in /  1022.2hPa NNE 2.9mph /  4.7km/h 7.0mph /  11.3km/h 17% 0.00in /  0mm 756.0 W/m2
12:41 81.3 °F /  27.4 °C 32.4 °F /  0.2 °C 30.19in /  1022.2hPa East 11.0mph /  17.7km/h 11.0mph /  17.7km/h 17% 0.00in /  0mm 759.0 W/m2
12:48 81.7 °F /  27.6 °C 31.1 °F /  -0.5 °C 30.19in /  1022.2hPa NNE 4.0mph /  6.4km/h 9.0mph /  14.5km/h 16% 0.00in /  0mm 756.0 W/m2
12:54 82.2 °F /  27.9 °C 31.6 °F /  -0.2 °C 30.18in /  1021.9hPa ENE 10.1mph /  16.3km/h 11.0mph /  17.7km/h 16% 0.00in /  0mm 759.0 W/m2
13:00 82.2 °F /  27.9 °C 31.6 °F /  -0.2 °C 30.18in /  1021.9hPa NNE 4.0mph /  6.4km/h 10.0mph /  16.1km/h 16% 0.00in /  0mm 758.0 W/m2
13:06 82.6 °F /  28.1 °C 31.8 °F /  -0.1 °C 30.17in /  1021.6hPa NNW 0.9mph /  1.4km/h 4.0mph /  6.4km/h 16% 0.00in /  0mm 751.0 W/m2
13:12 82.6 °F /  28.1 °C 31.8 °F /  -0.1 °C 30.17in /  1021.6hPa NNE 2.9mph /  4.7km/h 15.0mph /  24.1km/h 16% 0.00in /  0mm 749.0 W/m2
13:19 82.6 °F /  28.1 °C 31.8 °F /  -0.1 °C 30.16in /  1021.2hPa NNW 2.0mph /  3.2km/h 5.0mph /  8km/h 16% 0.00in /  0mm 745.0 W/m2
13:24 82.9 °F /  28.3 °C 32.2 °F /  0.1 °C 30.16in /  1021.2hPa ENE 2.9mph /  4.7km/h 6.0mph /  9.7km/h 16% 0.00in /  0mm 740.0 W/m2
13:30 83.5 °F /  28.6 °C 32.5 °F /  0.3 °C 30.16in /  1021.2hPa Calm   4.0mph /  6.4km/h 16% 0.00in /  0mm 737.0 W/m2
13:37 83.5 °F /  28.6 °C 30.9 °F /  -0.6 °C 30.16in /  1021.2hPa South 2.0mph /  3.2km/h 3.0mph /  4.8km/h 15% 0.00in /  0mm 724.0 W/m2
13:43 83.7 °F /  28.7 °C 32.7 °F /  0.4 °C 30.15in /  1020.9hPa East 6.9mph /  11.1km/h 10.0mph /  16.1km/h 16% 0.00in /  0mm 729.0 W/m2
13:49 83.8 °F /  28.8 °C 32.9 °F /  0.5 °C 30.15in /  1020.9hPa NE 4.0mph /  6.4km/h 12.0mph /  19.3km/h 16% 0.00in /  0mm 733.0 W/m2
13:55 84.0 °F /  28.9 °C 33.1 °F /  0.6 °C 30.14in /  1020.5hPa WNW 0.9mph /  1.4km/h 8.0mph /  12.9km/h 16% 0.00in /  0mm 724.0 W/m2
14:01 84.4 °F /  29.1 °C 33.3 °F /  0.7 °C 30.14in /  1020.5hPa SE 6.0mph /  9.7km/h 12.0mph /  19.3km/h 16% 0.00in /  0mm 722.0 W/m2
14:07 84.4 °F /  29.1 °C 34.9 °F /  1.6 °C 30.14in /  1020.5hPa NE 2.0mph /  3.2km/h 6.0mph /  9.7km/h 17% 0.00in /  0mm 701.0 W/m2
14:13 84.4 °F /  29.1 °C 33.3 °F /  0.7 °C 30.13in /  1020.2hPa NE 6.9mph /  11.1km/h 11.0mph /  17.7km/h 16% 0.00in /  0mm 696.0 W/m2
14:19 84.4 °F /  29.1 °C 33.3 °F /  0.7 °C 30.13in /  1020.2hPa North 8.1mph /  13km/h 9.0mph /  14.5km/h 16% 0.00in /  0mm 701.0 W/m2
14:26 84.4 °F /  29.1 °C 33.3 °F /  0.7 °C 30.13in /  1020.2hPa ENE 4.9mph /  7.9km/h 9.0mph /  14.5km/h 16% 0.00in /  0mm 686.0 W/m2
14:32 84.6 °F /  29.2 °C 33.4 °F /  0.8 °C 30.13in /  1020.2hPa NNW 0.9mph /  1.4km/h 3.0mph /  4.8km/h 16% 0.00in /  0mm 682.0 W/m2
14:38 84.7 °F /  29.3 °C 33.6 °F /  0.9 °C 30.12in /  1019.9hPa NNW 4.9mph /  7.9km/h 6.0mph /  9.7km/h 16% 0.00in /  0mm 687.0 W/m2
14:44 84.9 °F /  29.4 °C 33.8 °F /  1 °C 30.12in /  1019.9hPa East 4.0mph /  6.4km/h 6.0mph /  9.7km/h 16% 0.00in /  0mm 671.0 W/m2
14:50 84.7 °F /  29.3 °C 33.6 °F /  0.9 °C 30.12in /  1019.9hPa ESE 2.0mph /  3.2km/h 5.0mph /  8km/h 16% 0.00in /  0mm 647.0 W/m2
14:56 84.7 °F /  29.3 °C 32.0 °F /  0 °C 30.12in /  1019.9hPa SE 4.0mph /  6.4km/h 8.0mph /  12.9km/h 15% 0.00in /  0mm 169.0 W/m2
15:02 84.0 °F /  28.9 °C 31.5 °F /  -0.3 °C 30.11in /  1019.5hPa ESE 0.9mph /  1.4km/h 5.0mph /  8km/h 15% 0.00in /  0mm 128.0 W/m2
15:08 83.1 °F /  28.4 °C 32.4 °F /  0.2 °C 30.11in /  1019.5hPa NE 0.9mph /  1.4km/h 6.0mph /  9.7km/h 16% 0.00in /  0mm 141.0 W/m2
15:15 82.6 °F /  28.1 °C 31.8 °F /  -0.1 °C 30.11in /  1019.5hPa SE 2.0mph /  3.2km/h 8.0mph /  12.9km/h 16% 0.00in /  0mm 199.0 W/m2
15:21 82.2 °F /  27.9 °C 31.6 °F /  -0.2 °C 30.11in /  1019.5hPa Calm   9.0mph /  14.5km/h 16% 0.00in /  0mm 153.0 W/m2
15:27 82.0 °F /  27.8 °C 32.9 °F /  0.5 °C 30.11in /  1019.5hPa SE 0.9mph /  1.4km/h 2.0mph /  3.2km/h 17% 0.00in /  0mm 163.0 W/m2
15:33 81.7 °F /  27.6 °C 31.1 °F /  -0.5 °C 30.11in /  1019.5hPa Calm   4.0mph /  6.4km/h 16% 0.00in /  0mm 167.0 W/m2
15:39 81.7 °F /  27.6 °C 32.5 °F /  0.3 °C 30.10in /  1019.2hPa SSE 4.0mph /  6.4km/h 5.0mph /  8km/h 17% 0.00in /  0mm 169.0 W/m2
15:45 81.3 °F /  27.4 °C 32.4 °F /  0.2 °C 30.10in /  1019.2hPa NNE 2.9mph /  4.7km/h 6.0mph /  9.7km/h 17% 0.00in /  0mm 142.0 W/m2
15:51 81.1 °F /  27.3 °C 32.2 °F /  0.1 °C 30.10in /  1019.2hPa NE 2.0mph /  3.2km/h 5.0mph /  8km/h 17% 0.00in /  0mm 181.0 W/m2
15:58 81.1 °F /  27.3 °C 32.2 °F /  0.1 °C 30.10in /  1019.2hPa East 2.0mph /  3.2km/h 9.0mph /  14.5km/h 17% 0.00in /  0mm 459.0 W/m2
16:04 81.3 °F /  27.4 °C 32.4 °F /  0.2 °C 30.10in /  1019.2hPa NE 8.1mph /  13km/h 8.1mph /  13km/h 17% 0.00in /  0mm 431.0 W/m2
16:10 81.9 °F /  27.7 °C 32.7 °F /  0.4 °C 30.10in /  1019.2hPa NNE 2.9mph /  4.7km/h 10.0mph /  16.1km/h 17% 0.00in /  0mm 313.0 W/m2
16:16 82.0 °F /  27.8 °C 32.9 °F /  0.5 °C 30.10in /  1019.2hPa NE 8.9mph /  14.3km/h 10.0mph /  16.1km/h 17% 0.00in /  0mm 371.0 W/m2
16:22 82.0 °F /  27.8 °C 31.5 °F /  -0.3 °C 30.10in /  1019.2hPa NE 2.0mph /  3.2km/h 7.0mph /  11.3km/h 16% 0.00in /  0mm 339.0 W/m2
16:28 81.9 °F /  27.7 °C 31.3 °F /  -0.4 °C 30.10in /  1019.2hPa NNE 2.9mph /  4.7km/h 7.0mph /  11.3km/h 16% 0.00in /  0mm 137.0 W/m2
16:34 81.5 °F /  27.5 °C 32.5 °F /  0.3 °C 30.10in /  1019.2hPa NNW 2.9mph /  4.7km/h 5.0mph /  8km/h 17% 0.00in /  0mm 308.0 W/m2
16:40 81.5 °F /  27.5 °C 32.5 °F /  0.3 °C 30.10in /  1019.2hPa North 0.9mph /  1.4km/h 6.0mph /  9.7km/h 17% 0.00in /  0mm 330.0 W/m2
16:47 81.9 °F /  27.7 °C 32.7 °F /  0.4 °C 30.10in /  1019.2hPa WNW 2.9mph /  4.7km/h 7.0mph /  11.3km/h 17% 0.00in /  0mm 316.0 W/m2
16:53 82.2 °F /  27.9 °C 33.1 °F /  0.6 °C 30.10in /  1019.2hPa NE 0.9mph /  1.4km/h 7.0mph /  11.3km/h 17% 0.00in /  0mm 285.0 W/m2
16:59 82.2 °F /  27.9 °C 33.1 °F /  0.6 °C 30.10in /  1019.2hPa NE 6.9mph /  11.1km/h 10.0mph /  16.1km/h 17% 0.00in /  0mm 262.0 W/m2
17:05 82.0 °F /  27.8 °C 32.9 °F /  0.5 °C 30.10in /  1019.2hPa SE 4.0mph /  6.4km/h 10.0mph /  16.1km/h 17% 0.00in /  0mm 230.0 W/m2
17:11 81.7 °F /  27.6 °C 32.5 °F /  0.3 °C 30.10in /  1019.2hPa NE 6.0mph /  9.7km/h 11.0mph /  17.7km/h 17% 0.00in /  0mm 209.0 W/m2
17:17 81.3 °F /  27.4 °C 32.4 °F /  0.2 °C 30.10in /  1019.2hPa East 2.9mph /  4.7km/h 6.0mph /  9.7km/h 17% 0.00in /  0mm 186.0 W/m2
17:23 81.3 °F /  27.4 °C 33.8 °F /  1 °C 30.10in /  1019.2hPa ENE 4.9mph /  7.9km/h 7.0mph /  11.3km/h 18% 0.00in /  0mm 160.0 W/m2
17:30 81.0 °F /  27.2 °C 32.0 °F /  0 °C 30.10in /  1019.2hPa East 2.9mph /  4.7km/h 5.0mph /  8km/h 17% 0.00in /  0mm 123.0 W/m2
17:35 80.8 °F /  27.1 °C 31.8 °F /  -0.1 °C 30.10in /  1019.2hPa North 2.9mph /  4.7km/h 5.0mph /  8km/h 17% 0.00in /  0mm 86.0 W/m2
17:42 80.4 °F /  26.9 °C 33.1 °F /  0.6 °C 30.10in /  1019.2hPa NNE 0.9mph /  1.4km/h 4.0mph /  6.4km/h 18% 0.00in /  0mm 104.0 W/m2
17:48 80.4 °F /  26.9 °C 31.6 °F /  -0.2 °C 30.10in /  1019.2hPa NNW 4.0mph /  6.4km/h 5.0mph /  8km/h 17% 0.00in /  0mm 95.0 W/m2
17:54 80.1 °F /  26.7 °C 31.3 °F /  -0.4 °C 30.11in /  1019.5hPa NNW 2.9mph /  4.7km/h 4.0mph /  6.4km/h 17% 0.00in /  0mm 81.0 W/m2
18:00 79.9 °F /  26.6 °C 31.1 °F /  -0.5 °C 30.11in /  1019.5hPa NNE 2.9mph /  4.7km/h 3.0mph /  4.8km/h 17% 0.00in /  0mm 51.0 W/m2
18:06 79.5 °F /  26.4 °C 32.4 °F /  0.2 °C 30.11in /  1019.5hPa NE 0.9mph /  1.4km/h 4.0mph /  6.4km/h 18% 0.00in /  0mm 46.0 W/m2
18:12 79.3 °F /  26.3 °C 32.2 °F /  0.1 °C 30.11in /  1019.5hPa Calm   2.0mph /  3.2km/h 18% 0.00in /  0mm 39.0 W/m2
18:18 79.0 °F /  26.1 °C 31.8 °F /  -0.1 °C 30.11in /  1019.5hPa ENE 2.0mph /  3.2km/h 3.0mph /  4.8km/h 18% 0.00in /  0mm 28.0 W/m2
18:25 78.4 °F /  25.8 °C 31.5 °F /  -0.3 °C 30.11in /  1019.5hPa NE 0.9mph /  1.4km/h 5.0mph /  8km/h 18% 0.00in /  0mm 18.0 W/m2
18:31 78.3 °F /  25.7 °C 32.5 °F /  0.3 °C 30.12in /  1019.9hPa NE 2.0mph /  3.2km/h 3.0mph /  4.8km/h 19% 0.00in /  0mm 9.0 W/m2
18:37 77.5 °F /  25.3 °C 32.0 °F /  0 °C 30.12in /  1019.9hPa ENE 4.9mph /  7.9km/h 5.0mph /  8km/h 19% 0.00in /  0mm 0.0 W/m2
18:43 77.2 °F /  25.1 °C 31.8 °F /  -0.1 °C 30.12in /  1019.9hPa Calm   1.0mph /  1.6km/h 19% 0.00in /  0mm 0.0 W/m2
18:49 76.6 °F /  24.8 °C 32.5 °F /  0.3 °C 30.12in /  1019.9hPa Calm   3.0mph /  4.8km/h 20% 0.00in /  0mm 0.0 W/m2
18:55 76.3 °F /  24.6 °C 32.2 °F /  0.1 °C 30.13in /  1020.2hPa Calm     20% 0.00in /  0mm 0.0 W/m2
19:01 75.6 °F /  24.2 °C 32.9 °F /  0.5 °C 30.13in /  1020.2hPa Calm   1.0mph /  1.6km/h 21% 0.00in /  0mm 0.0 W/m2
19:08 75.0 °F /  23.9 °C 32.4 °F /  0.2 °C 30.13in /  1020.2hPa Calm   1.0mph /  1.6km/h 21% 0.00in /  0mm 0.0 W/m2
19:14 74.5 °F /  23.6 °C 33.1 °F /  0.6 °C 30.13in /  1020.2hPa Calm     22% 0.00in /  0mm 0.0 W/m2
19:20 73.8 °F /  23.2 °C 32.5 °F /  0.3 °C 30.14in /  1020.5hPa Calm   2.0mph /  3.2km/h 22% 0.00in /  0mm 0.0 W/m2
19:26 73.0 °F /  22.8 °C 32.0 °F /  0 °C 30.14in /  1020.5hPa East 2.9mph /  4.7km/h 3.0mph /  4.8km/h 22% 0.00in /  0mm 0.0 W/m2
19:32 72.3 °F /  22.4 °C 32.4 °F /  0.2 °C 30.14in /  1020.5hPa Calm   2.0mph /  3.2km/h 23% 0.00in /  0mm 0.0 W/m2
19:38 72.0 °F /  22.2 °C 32.2 °F /  0.1 °C 30.14in /  1020.5hPa Calm     23% 0.00in /  0mm 0.0 W/m2
19:44 71.4 °F /  21.9 °C 32.7 °F /  0.4 °C 30.15in /  1020.9hPa NE 2.0mph /  3.2km/h 2.0mph /  3.2km/h 24% 0.00in /  0mm 0.0 W/m2
19:51 71.1 °F /  21.7 °C 32.4 °F /  0.2 °C 30.15in /  1020.9hPa Calm   1.0mph /  1.6km/h 24% 0.00in /  0mm 0.0 W/m2
19:57 70.5 °F /  21.4 °C 32.0 °F /  0 °C 30.15in /  1020.9hPa ESE 0.9mph /  1.4km/h 1.0mph /  1.6km/h 24% 0.00in /  0mm 0.0 W/m2
20:03 70.2 °F /  21.2 °C 32.7 °F /  0.4 °C 30.15in /  1020.9hPa East 0.9mph /  1.4km/h 3.0mph /  4.8km/h 25% 0.00in /  0mm 0.0 W/m2
20:09 70.0 °F /  21.1 °C 32.5 °F /  0.3 °C 30.16in /  1021.2hPa Calm   1.0mph /  1.6km/h 25% 0.00in /  0mm 0.0 W/m2
20:15 69.4 °F /  20.8 °C 33.1 °F /  0.6 °C 30.16in /  1021.2hPa Calm     26% 0.00in /  0mm 0.0 W/m2
20:21 69.3 °F /  20.7 °C 32.9 °F /  0.5 °C 30.16in /  1021.2hPa ESE 0.9mph /  1.4km/h 5.0mph /  8km/h 26% 0.00in /  0mm 0.0 W/m2
20:27 68.7 °F /  20.4 °C 32.4 °F /  0.2 °C 30.16in /  1021.2hPa NE 0.9mph /  1.4km/h 4.0mph /  6.4km/h 26% 0.00in /  0mm 0.0 W/m2
20:33 68.5 °F /  20.3 °C 32.4 °F /  0.2 °C 30.16in /  1021.2hPa East 0.9mph /  1.4km/h 1.0mph /  1.6km/h 26% 0.00in /  0mm 0.0 W/m2
20:39 68.4 °F /  20.2 °C 33.1 °F /  0.6 °C 30.16in /  1021.2hPa ESE 2.9mph /  4.7km/h 5.0mph /  8km/h 27% 0.00in /  0mm 0.0 W/m2
20:46 68.2 °F /  20.1 °C 32.9 °F /  0.5 °C 30.16in /  1021.2hPa NE 2.0mph /  3.2km/h 2.0mph /  3.2km/h 27% 0.00in /  0mm 0.0 W/m2
20:52 67.8 °F /  19.9 °C 33.4 °F /  0.8 °C 30.17in /  1021.6hPa SE 4.9mph /  7.9km/h 5.0mph /  8km/h 28% 0.00in /  0mm 0.0 W/m2
20:58 67.8 °F /  19.9 °C 33.4 °F /  0.8 °C 30.17in /  1021.6hPa Calm   6.0mph /  9.7km/h 28% 0.00in /  0mm 0.0 W/m2
21:04 67.8 °F /  19.9 °C 33.4 °F /  0.8 °C 30.17in /  1021.6hPa ENE 2.0mph /  3.2km/h 5.0mph /  8km/h 28% 0.00in /  0mm 0.0 W/m2
21:10 68.0 °F /  20 °C 33.6 °F /  0.9 °C 30.17in /  1021.6hPa NE 4.0mph /  6.4km/h 5.0mph /  8km/h 28% 0.00in /  0mm 0.0 W/m2
21:16 68.2 °F /  20.1 °C 33.8 °F /  1 °C 30.17in /  1021.6hPa ENE 2.0mph /  3.2km/h 10.0mph /  16.1km/h 28% 0.00in /  0mm 0.0 W/m2
21:22 68.2 °F /  20.1 °C 33.8 °F /  1 °C 30.17in /  1021.6hPa Calm   8.0mph /  12.9km/h 28% 0.00in /  0mm 0.0 W/m2
21:29 67.8 °F /  19.9 °C 34.3 °F /  1.3 °C 30.18in /  1021.9hPa NE 2.0mph /  3.2km/h 5.0mph /  8km/h 29% 0.00in /  0mm 0.0 W/m2
21:35 67.8 °F /  19.9 °C 34.3 °F /  1.3 °C 30.18in /  1021.9hPa ENE 0.9mph /  1.4km/h 5.0mph /  8km/h 29% 0.00in /  0mm 0.0 W/m2
21:41 67.6 °F /  19.8 °C 34.2 °F /  1.2 °C 30.18in /  1021.9hPa ENE 8.1mph /  13km/h 8.1mph /  13km/h 29% 0.00in /  0mm 0.0 W/m2
21:47 67.6 °F /  19.8 °C 34.2 °F /  1.2 °C 30.19in /  1022.2hPa ESE 6.0mph /  9.7km/h 6.0mph /  9.7km/h 29% 0.00in /  0mm 0.0 W/m2
21:53 67.6 °F /  19.8 °C 34.2 °F /  1.2 °C 30.19in /  1022.2hPa NE 4.0mph /  6.4km/h 5.0mph /  8km/h 29% 0.00in /  0mm 0.0 W/m2
21:59 67.5 °F /  19.7 °C 34.2 °F /  1.2 °C 30.19in /  1022.2hPa NE 4.9mph /  7.9km/h 5.0mph /  8km/h 29% 0.00in /  0mm 0.0 W/m2
22:05 67.5 °F /  19.7 °C 34.2 °F /  1.2 °C 30.19in /  1022.2hPa ENE 0.9mph /  1.4km/h 6.0mph /  9.7km/h 29% 0.00in /  0mm 0.0 W/m2
22:11 67.5 °F /  19.7 °C 34.2 °F /  1.2 °C 30.19in /  1022.2hPa NNE 0.9mph /  1.4km/h 5.0mph /  8km/h 29% 0.00in /  0mm 0.0 W/m2
22:18 67.3 °F /  19.6 °C 34.0 °F /  1.1 °C 30.19in /  1022.2hPa NE 2.0mph /  3.2km/h 4.0mph /  6.4km/h 29% 0.00in /  0mm 0.0 W/m2
22:24 67.3 °F /  19.6 °C 34.0 °F /  1.1 °C 30.19in /  1022.2hPa East 2.0mph /  3.2km/h 6.0mph /  9.7km/h 29% 0.00in /  0mm 0.0 W/m2
22:30 66.9 °F /  19.4 °C 34.5 °F /  1.4 °C 30.19in /  1022.2hPa Calm   3.0mph /  4.8km/h 30% 0.00in /  0mm 0.0 W/m2
22:36 66.7 °F /  19.3 °C 34.3 °F /  1.3 °C 30.20in /  1022.6hPa ENE 0.9mph /  1.4km/h 3.0mph /  4.8km/h 30% 0.00in /  0mm 0.0 W/m2
22:42 66.6 °F /  19.2 °C 34.2 °F /  1.2 °C 30.20in /  1022.6hPa NE 0.9mph /  1.4km/h 2.0mph /  3.2km/h 30% 0.00in /  0mm 0.0 W/m2
22:48 66.4 °F /  19.1 °C 34.9 °F /  1.6 °C 30.20in /  1022.6hPa NE 0.9mph /  1.4km/h 2.0mph /  3.2km/h 31% 0.00in /  0mm 0.0 W/m2
22:54 65.8 °F /  18.8 °C 34.3 °F /  1.3 °C 30.20in /  1022.6hPa Calm   3.0mph /  4.8km/h 31% 0.00in /  0mm 0.0 W/m2
23:00 65.7 °F /  18.7 °C 34.2 °F /  1.2 °C 30.20in /  1022.6hPa Calm   1.0mph /  1.6km/h 31% 0.00in /  0mm 0.0 W/m2
23:06 65.3 °F /  18.5 °C 33.8 °F /  1 °C 30.20in /  1022.6hPa Calm   4.0mph /  6.4km/h 31% 0.00in /  0mm 0.0 W/m2
23:13 64.9 °F /  18.3 °C 34.3 °F /  1.3 °C 30.20in /  1022.6hPa Calm   2.0mph /  3.2km/h 32% 0.00in /  0mm 0.0 W/m2
23:19 64.8 °F /  18.2 °C 34.2 °F /  1.2 °C 30.20in /  1022.6hPa Calm   2.0mph /  3.2km/h 32% 0.00in /  0mm 0.0 W/m2
23:25 64.4 °F /  18 °C 34.0 °F /  1.1 °C 30.20in /  1022.6hPa ENE 0.9mph /  1.4km/h 1.0mph /  1.6km/h 32% 0.00in /  0mm 0.0 W/m2
23:31 64.2 °F /  17.9 °C 33.8 °F /  1 °C 30.21in /  1022.9hPa Calm   2.0mph /  3.2km/h 32% 0.00in /  0mm 0.0 W/m2
23:37 63.9 °F /  17.7 °C 34.2 °F /  1.2 °C 30.20in /  1022.6hPa East 0.9mph /  1.4km/h 1.0mph /  1.6km/h 33% 0.00in /  0mm 0.0 W/m2
23:43 63.7 °F /  17.6 °C 34.0 °F /  1.1 °C 30.21in /  1022.9hPa Calm   1.0mph /  1.6km/h 33% 0.00in /  0mm 0.0 W/m2
23:49 63.1 °F /  17.3 °C 33.6 °F /  0.9 °C 30.20in /  1022.6hPa Calm   1.0mph /  1.6km/h 33% 0.00in /  0mm 0.0 W/m2
23:55 63.0 °F /  17.2 °C 34.2 °F /  1.2 °C 30.20in /  1022.6hPa NE 0.9mph /  1.4km/h 2.0mph /  3.2km/h 34% 0.00in /  0mm 0.0 W/m2
Olympia, Windhoek, Namibia
Compliments of Weather Underground - 3 mb